createdAt,value
2018-08-06T00:01:44.090Z,1.80
2018-08-06T00:04:13.079Z,1.20
2018-08-06T00:06:42.011Z,1.40
2018-08-06T00:09:10.926Z,2.40
2018-08-06T00:11:40.157Z,1.80
2018-08-06T00:14:09.057Z,1.00
2018-08-06T00:16:38.007Z,0.00
2018-08-06T00:19:07.004Z,1.00
2018-08-06T00:21:36.166Z,1.00
2018-08-06T00:24:05.135Z,1.80
2018-08-06T00:26:34.104Z,1.00
2018-08-06T00:29:03.029Z,2.60
2018-08-06T00:31:32.154Z,1.00
2018-08-06T00:34:01.137Z,0.00
2018-08-06T00:36:30.178Z,2.00
2018-08-06T00:38:59.093Z,0.00
2018-08-06T00:41:28.098Z,1.80
2018-08-06T00:43:57.213Z,1.00
2018-08-06T00:46:26.234Z,1.40
2018-08-06T00:48:55.528Z,4.00
2018-08-06T00:51:24.744Z,1.40
2018-08-06T00:53:53.779Z,2.00
2018-08-06T00:56:22.777Z,2.00
2018-08-06T00:58:52.526Z,1.00
2018-08-06T01:01:21.533Z,2.40
2018-08-06T01:03:50.486Z,1.60
2018-08-06T01:06:20.902Z,2.00
2018-08-06T01:08:49.869Z,2.40
2018-08-06T01:11:18.876Z,2.00
2018-08-06T01:13:47.794Z,2.00
2018-08-06T01:16:16.731Z,1.40
2018-08-06T01:18:45.706Z,4.00
2018-08-06T01:21:14.761Z,2.00
2018-08-06T01:23:43.719Z,2.00
2018-08-06T01:26:12.837Z,2.40
2018-08-06T01:28:41.844Z,2.80
2018-08-06T01:31:11.314Z,2.40
2018-08-06T01:33:41.002Z,3.00
2018-08-06T01:36:09.921Z,2.00
2018-08-06T01:38:38.882Z,2.80
2018-08-06T01:41:08.070Z,3.40
2018-08-06T01:43:37.097Z,2.00
2018-08-06T01:46:07.982Z,1.40
2018-08-06T01:48:37.803Z,2.40
2018-08-06T01:51:08.627Z,2.80
2018-08-06T01:53:38.593Z,5.00
2018-08-06T01:56:09.193Z,1.00
2018-08-06T01:58:38.428Z,2.40
2018-08-06T02:01:07.840Z,2.00
2018-08-06T02:03:36.842Z,4.00
2018-08-06T02:06:06.880Z,4.20
2018-08-06T02:08:38.020Z,2.00
2018-08-06T02:11:07.204Z,4.00
2018-08-06T02:13:36.166Z,1.40
2018-08-06T02:16:05.673Z,1.00
2018-08-06T02:18:34.671Z,1.00
2018-08-06T02:21:03.642Z,2.00
2018-08-06T02:23:32.651Z,1.00
2018-08-06T02:26:01.647Z,1.00
2018-08-06T02:28:30.686Z,2.00
2018-08-06T02:30:59.668Z,2.00
2018-08-06T02:33:28.774Z,1.00
2018-08-06T02:35:57.807Z,0.00
2018-08-06T02:38:26.854Z,2.40
2018-08-06T02:40:55.999Z,1.00
2018-08-06T02:43:24.956Z,2.00
2018-08-06T02:45:53.957Z,1.00
2018-08-06T02:48:22.923Z,2.00
2018-08-06T02:50:51.886Z,2.00
2018-08-06T02:53:20.909Z,0.00
2018-08-06T02:55:49.854Z,2.00
2018-08-06T02:58:19.234Z,2.00
2018-08-06T03:00:48.275Z,2.00
2018-08-06T03:03:17.215Z,1.00
2018-08-06T03:05:46.196Z,1.00
2018-08-06T03:08:15.143Z,3.00
2018-08-06T03:10:44.219Z,1.00
2018-08-06T03:13:13.173Z,2.00
2018-08-06T03:15:42.154Z,1.60
2018-08-06T03:18:11.091Z,2.00
2018-08-06T03:20:40.066Z,2.00
2018-08-06T03:23:09.031Z,1.80
2018-08-06T03:25:37.980Z,2.00
2018-08-06T03:28:07.096Z,1.00
2018-08-06T03:30:36.412Z,1.80
2018-08-06T03:33:05.406Z,1.00
2018-08-06T03:35:34.359Z,2.00
2018-08-06T03:38:03.404Z,1.20
2018-08-06T03:40:32.748Z,4.00
2018-08-06T03:43:01.691Z,1.00
2018-08-06T03:45:30.668Z,1.00
2018-08-06T03:47:59.897Z,1.20
2018-08-06T03:50:28.849Z,1.40
2018-08-06T03:52:57.816Z,1.00
2018-08-06T03:55:27.123Z,1.40
2018-08-06T03:57:56.119Z,2.00
2018-08-06T04:00:25.110Z,1.20
2018-08-06T04:02:54.398Z,1.80
2018-08-06T04:05:23.348Z,2.80
2018-08-06T04:07:52.300Z,1.20
2018-08-06T04:10:21.283Z,1.00
2018-08-06T04:12:50.223Z,1.00
2018-08-06T04:15:19.187Z,2.00
2018-08-06T04:17:48.231Z,2.00
2018-08-06T04:20:17.186Z,4.40
2018-08-06T04:22:46.551Z,1.00
2018-08-06T04:25:15.631Z,2.00
2018-08-06T04:27:44.603Z,0.80
2018-08-06T04:30:14.814Z,4.00
2018-08-06T04:32:44.860Z,3.00
2018-08-06T04:35:13.835Z,1.00
2018-08-06T04:37:43.535Z,5.00
2018-08-06T04:40:13.348Z,1.40
2018-08-06T04:42:43.087Z,4.60
2018-08-06T04:45:12.498Z,2.00
2018-08-06T04:47:42.184Z,4.00
2018-08-06T04:50:13.207Z,3.00
2018-08-06T04:52:42.253Z,3.00
2018-08-06T04:55:13.554Z,1.00
2018-08-06T04:57:42.874Z,2.00
2018-08-06T05:00:14.160Z,1.40
2018-08-06T05:02:43.612Z,2.00
2018-08-06T05:05:13.049Z,2.00
2018-08-06T05:07:42.049Z,2.00
2018-08-06T05:10:11.106Z,2.00
2018-08-06T05:12:40.148Z,2.00
2018-08-06T05:15:09.151Z,3.00
2018-08-06T05:17:38.170Z,1.00
2018-08-06T05:20:07.119Z,1.20
2018-08-06T05:22:36.132Z,2.00
2018-08-06T05:25:05.484Z,2.00
2018-08-06T05:27:34.515Z,2.00
2018-08-06T05:30:03.560Z,4.00
2018-08-06T05:32:32.515Z,1.40
2018-08-06T05:35:01.461Z,2.00
2018-08-06T05:37:30.424Z,1.40
2018-08-06T05:39:59.392Z,3.00
2018-08-06T05:42:28.886Z,4.00
2018-08-06T05:44:57.860Z,1.00
2018-08-06T05:47:27.216Z,1.00
2018-08-06T05:49:56.179Z,1.40
2018-08-06T05:52:25.695Z,4.00
2018-08-06T05:54:56.558Z,3.00
2018-08-06T05:57:26.416Z,3.80
2018-08-06T05:59:55.846Z,2.00
2018-08-06T06:02:25.683Z,5.00
2018-08-06T06:04:55.168Z,3.00
2018-08-06T06:07:24.482Z,2.00
2018-08-06T06:09:55.540Z,1.60
2018-08-06T06:12:24.930Z,2.00
2018-08-06T06:14:55.868Z,4.00
2018-08-06T06:17:25.122Z,1.40
2018-08-06T06:19:54.380Z,1.00
2018-08-06T06:22:24.231Z,3.20
2018-08-06T06:24:54.154Z,3.80
2018-08-06T06:27:24.180Z,2.80
2018-08-06T06:29:54.688Z,1.20
2018-08-06T06:32:24.581Z,2.00
2018-08-06T06:34:57.856Z,2.00
2018-08-06T06:37:29.900Z,2.00
2018-08-06T06:40:01.565Z,1.80
2018-08-06T06:42:32.397Z,1.20
2018-08-06T06:45:02.687Z,2.00
2018-08-06T06:47:35.151Z,2.40
2018-08-06T06:50:09.522Z,1.00
2018-08-06T06:52:38.512Z,2.00
2018-08-06T06:55:09.867Z,2.00
2018-08-06T06:57:38.814Z,2.00
2018-08-06T07:00:09.018Z,2.00
2018-08-06T07:02:38.107Z,2.00
2018-08-06T07:05:07.751Z,1.60
2018-08-06T07:07:37.386Z,1.00
2018-08-06T07:10:08.889Z,1.00
2018-08-06T07:12:38.224Z,1.60
2018-08-06T07:15:10.600Z,4.00
2018-08-06T07:17:40.022Z,2.00
2018-08-06T07:20:09.608Z,1.00
2018-08-06T07:22:39.537Z,3.20
2018-08-06T07:25:10.663Z,4.00
2018-08-06T07:27:41.667Z,2.40
2018-08-06T07:30:13.801Z,2.00
2018-08-06T07:32:44.329Z,4.00
2018-08-06T07:35:14.806Z,5.40
2018-08-06T07:37:44.048Z,2.40
2018-08-06T07:40:15.246Z,2.00
2018-08-06T07:42:45.790Z,4.00
2018-08-06T07:45:17.165Z,3.00
2018-08-06T07:47:46.983Z,2.00
2018-08-06T07:50:17.742Z,2.00
2018-08-06T07:52:46.859Z,4.00
2018-08-06T07:55:16.340Z,2.80
2018-08-06T07:57:45.356Z,2.00
2018-08-06T08:00:19.019Z,4.00
2018-08-06T08:02:48.201Z,4.40
2018-08-06T08:05:18.432Z,4.00
2018-08-06T08:07:48.196Z,3.20
2018-08-06T08:10:22.642Z,1.80
2018-08-06T08:12:51.655Z,4.00
2018-08-06T08:15:26.594Z,4.00
2018-08-06T08:17:57.034Z,3.00
2018-08-06T08:20:26.302Z,5.40
2018-08-06T08:22:55.307Z,4.20
2018-08-06T08:25:24.457Z,5.40
2018-08-06T08:27:53.490Z,5.40
2018-08-06T08:30:22.804Z,4.00
2018-08-06T08:32:52.127Z,4.00
2018-08-06T08:35:21.130Z,4.00
2018-08-06T08:37:50.204Z,4.80
2018-08-06T08:40:20.103Z,4.00
2018-08-06T08:42:49.295Z,4.80
2018-08-06T08:45:18.887Z,3.00
2018-08-06T08:47:48.924Z,3.40
2018-08-06T08:50:20.288Z,4.60
2018-08-06T08:52:52.047Z,4.00
2018-08-06T08:55:21.799Z,4.00
2018-08-06T08:57:50.762Z,4.20
2018-08-06T09:00:21.739Z,4.80
2018-08-06T09:02:51.948Z,4.00
2018-08-06T09:05:21.249Z,5.60
2018-08-06T09:07:51.217Z,5.00
2018-08-06T09:10:20.719Z,5.20
2018-08-06T09:12:50.744Z,4.00
2018-08-06T09:15:25.210Z,5.00
2018-08-06T09:17:55.080Z,4.20
2018-08-06T09:20:24.946Z,4.00
2018-08-06T09:22:55.969Z,4.80
2018-08-06T09:25:25.207Z,5.00
2018-08-06T09:27:54.183Z,5.00
2018-08-06T09:30:24.362Z,5.00
2018-08-06T09:32:54.980Z,4.60
2018-08-06T09:35:24.210Z,3.40
2018-08-06T09:37:53.267Z,5.00
2018-08-06T09:40:23.415Z,3.60
2018-08-06T09:42:52.755Z,4.00
2018-08-06T09:45:22.697Z,5.60
2018-08-06T09:47:53.476Z,3.00
2018-08-06T09:50:23.029Z,4.00
2018-08-06T09:52:53.147Z,3.80
2018-08-06T09:55:25.106Z,3.80
2018-08-06T09:57:54.331Z,4.00
2018-08-06T10:00:28.924Z,4.00
2018-08-06T10:02:59.487Z,3.80
2018-08-06T10:05:29.784Z,4.00
2018-08-06T10:07:59.845Z,4.00
2018-08-06T10:10:29.217Z,5.20
2018-08-06T10:12:58.506Z,4.40
2018-08-06T10:15:27.651Z,4.00
2018-08-06T10:17:57.122Z,4.00
2018-08-06T10:20:27.204Z,4.00
2018-08-06T10:22:56.780Z,4.00
2018-08-06T10:25:25.754Z,4.80
2018-08-06T10:27:54.951Z,4.60
2018-08-06T10:30:24.394Z,4.00
2018-08-06T10:32:53.630Z,4.00
2018-08-06T10:35:22.890Z,5.00
2018-08-06T10:37:53.007Z,5.00
2018-08-06T10:40:24.703Z,3.20
2018-08-06T10:42:54.274Z,5.00
2018-08-06T10:45:24.651Z,4.60
2018-08-06T10:47:55.176Z,3.40
2018-08-06T10:50:25.115Z,4.00
2018-08-06T10:52:54.939Z,3.00
2018-08-06T10:55:25.104Z,4.40
2018-08-06T10:57:54.070Z,3.20
2018-08-06T11:00:24.274Z,3.20
2018-08-06T11:02:54.941Z,3.60
2018-08-06T11:05:24.696Z,5.00
2018-08-06T11:07:54.861Z,4.40
2018-08-06T11:10:25.291Z,3.20
2018-08-06T11:12:56.471Z,3.00
2018-08-06T11:15:27.319Z,3.60
2018-08-06T11:17:58.875Z,5.00
2018-08-06T11:20:30.008Z,5.00
2018-08-06T11:23:02.815Z,4.60
2018-08-06T11:25:32.848Z,4.60
2018-08-06T11:28:02.896Z,4.80
2018-08-06T11:30:32.916Z,4.80
2018-08-06T11:33:04.018Z,5.00
2018-08-06T11:35:35.611Z,3.60
2018-08-06T11:38:20.507Z,6.60
2018-08-06T11:40:54.165Z,5.20
2018-08-06T11:43:23.729Z,5.40
2018-08-06T11:45:54.024Z,6.60
2018-08-06T11:48:24.983Z,7.40
2018-08-06T11:50:56.238Z,5.80
2018-08-06T11:53:26.906Z,5.80
2018-08-06T11:55:58.747Z,3.80
2018-08-06T11:58:28.771Z,5.00
2018-08-06T12:00:58.930Z,6.00
2018-08-06T12:03:28.398Z,2.60
2018-08-06T12:05:57.695Z,3.00
2018-08-06T12:08:27.996Z,4.00
2018-08-06T12:10:57.727Z,4.00
2018-08-06T12:13:27.191Z,5.00
2018-08-06T12:15:57.512Z,3.20
2018-08-06T12:18:26.880Z,4.80
2018-08-06T12:20:56.412Z,4.00
2018-08-06T12:23:26.383Z,3.80
2018-08-06T12:25:55.826Z,5.40
2018-08-06T12:28:26.220Z,6.00
2018-08-06T12:30:58.805Z,3.00
2018-08-06T12:33:28.274Z,5.00
2018-08-06T12:35:57.390Z,3.00
2018-08-06T12:38:36.795Z,3.00
2018-08-06T12:41:06.643Z,4.80
2018-08-06T12:43:38.537Z,4.60
2018-08-06T12:46:07.856Z,3.00
2018-08-06T12:48:40.410Z,5.00
2018-08-06T12:51:11.289Z,4.00
2018-08-06T12:53:41.371Z,2.40
2018-08-06T12:56:12.273Z,4.20
2018-08-06T12:58:42.434Z,4.40
2018-08-06T13:01:11.794Z,6.80
2018-08-06T13:03:43.211Z,6.00
2018-08-06T13:06:12.841Z,4.00
2018-08-06T13:08:43.403Z,6.80
2018-08-06T13:11:14.249Z,5.80
2018-08-06T13:13:43.765Z,6.00
2018-08-06T13:16:13.249Z,3.00
2018-08-06T13:18:43.590Z,5.40
2018-08-06T13:21:12.592Z,3.80
2018-08-06T13:23:42.502Z,3.80
2018-08-06T13:26:12.519Z,7.00
2018-08-06T13:28:41.933Z,3.00
2018-08-06T13:31:12.546Z,6.40
2018-08-06T13:33:42.326Z,5.60
2018-08-06T13:36:12.581Z,5.00
2018-08-06T13:38:41.861Z,3.00
2018-08-06T13:41:11.987Z,5.80
2018-08-06T13:43:41.796Z,5.00
2018-08-06T13:46:11.270Z,4.60
2018-08-06T13:48:42.343Z,5.00
2018-08-06T13:51:11.671Z,3.00
2018-08-06T13:53:41.572Z,4.20
2018-08-06T13:56:12.302Z,5.80
2018-08-06T13:58:42.655Z,3.00
2018-08-06T14:01:11.847Z,2.00
2018-08-06T14:03:41.179Z,4.60
2018-08-06T14:06:10.975Z,8.40
2018-08-06T14:08:40.630Z,5.00
2018-08-06T14:11:10.118Z,6.00
2018-08-06T14:13:39.366Z,3.00
2018-08-06T14:16:10.383Z,4.00
2018-08-06T14:18:39.875Z,5.00
2018-08-06T14:21:09.651Z,3.40
2018-08-06T14:23:38.842Z,3.00
2018-08-06T14:26:08.239Z,3.00
2018-08-06T14:28:37.586Z,3.00
2018-08-06T14:31:07.643Z,4.20
2018-08-06T14:33:37.018Z,3.00
2018-08-06T14:36:06.744Z,2.40
2018-08-06T14:38:36.801Z,3.00
2018-08-06T14:41:06.948Z,2.00
2018-08-06T14:43:36.282Z,3.00
2018-08-06T14:46:05.578Z,2.00
2018-08-06T14:48:36.156Z,5.40
2018-08-06T14:51:05.730Z,2.60
2018-08-06T14:53:36.419Z,3.00
2018-08-06T14:56:06.444Z,2.40
2018-08-06T14:58:36.487Z,3.00
2018-08-06T15:01:05.651Z,3.00
2018-08-06T15:03:35.851Z,3.40
2018-08-06T15:06:06.504Z,2.00
2018-08-06T15:08:35.750Z,4.60
2018-08-06T15:12:19.558Z,3.00
2018-08-06T15:14:50.465Z,2.00
2018-08-06T15:17:22.643Z,2.00
2018-08-06T15:19:51.751Z,2.40
2018-08-06T15:22:21.455Z,3.20
2018-08-06T15:24:51.322Z,2.00
2018-08-06T15:27:21.290Z,1.80
2018-08-06T15:29:51.673Z,2.40
2018-08-06T15:32:20.922Z,2.60
2018-08-06T15:34:50.171Z,2.00
2018-08-06T15:37:19.510Z,1.00
2018-08-06T15:39:49.643Z,2.20
2018-08-06T15:42:18.778Z,2.00
2018-08-06T15:44:50.650Z,2.00
2018-08-06T15:47:20.519Z,1.80
2018-08-06T15:49:49.967Z,3.00
2018-08-06T15:52:19.339Z,2.00
2018-08-06T15:54:49.217Z,2.40
2018-08-06T15:57:18.663Z,2.00
2018-08-06T15:59:47.782Z,3.00
2018-08-06T16:02:17.275Z,2.20
2018-08-06T16:04:46.815Z,1.80
2018-08-06T16:07:16.191Z,2.00
2018-08-06T16:09:45.894Z,2.80
2018-08-06T16:12:15.047Z,2.00
2018-08-06T16:14:46.902Z,2.00
2018-08-06T16:17:16.226Z,2.00
2018-08-06T16:19:46.279Z,2.00
2018-08-06T16:22:15.600Z,2.00
2018-08-06T16:24:44.863Z,3.00
2018-08-06T16:27:14.488Z,2.00
2018-08-06T16:29:43.883Z,2.00
2018-08-06T16:32:13.738Z,3.00
2018-08-06T16:34:44.309Z,1.80
2018-08-06T16:37:13.911Z,1.80
2018-08-06T16:39:44.507Z,1.20
2018-08-06T16:42:14.908Z,2.00
2018-08-06T16:44:44.775Z,2.00
2018-08-06T16:47:14.782Z,2.60
2018-08-06T16:49:45.043Z,3.00
2018-08-06T16:52:14.166Z,2.40
2018-08-06T16:54:43.130Z,3.00
2018-08-06T16:57:12.483Z,2.00
2018-08-06T16:59:41.424Z,1.00
2018-08-06T17:02:10.779Z,2.00
2018-08-06T17:04:40.479Z,1.00
2018-08-06T17:07:09.629Z,3.00
2018-08-06T17:09:39.035Z,1.00
2018-08-06T17:12:08.442Z,2.00
2018-08-06T17:14:38.095Z,4.20
2018-08-06T17:17:07.447Z,2.00
2018-08-06T17:19:37.834Z,3.40
2018-08-06T17:22:07.228Z,3.00
2018-08-06T17:24:39.172Z,3.20
2018-08-06T17:27:08.433Z,1.00
2018-08-06T17:29:37.814Z,4.00
2018-08-06T17:32:08.886Z,2.00
2018-08-06T17:34:39.000Z,3.00
2018-08-06T17:37:08.210Z,2.20
2018-08-06T17:39:38.005Z,2.00
2018-08-06T17:42:07.846Z,2.00
2018-08-06T17:44:37.262Z,3.00
2018-08-06T17:47:07.286Z,4.60
2018-08-06T17:49:36.791Z,3.80
2018-08-06T17:52:07.001Z,4.60
2018-08-06T17:54:36.984Z,3.00
2018-08-06T17:57:06.180Z,2.60
2018-08-06T17:59:35.790Z,3.00
2018-08-06T18:02:05.157Z,3.00
2018-08-06T18:04:34.612Z,2.80
2018-08-06T18:07:05.571Z,3.00
2018-08-06T18:09:35.185Z,3.00
2018-08-06T18:12:04.876Z,2.20
2018-08-06T18:14:34.155Z,2.00
2018-08-06T18:17:04.171Z,3.00
2018-08-06T18:19:34.180Z,5.00
2018-08-06T18:22:03.632Z,3.80
2018-08-06T18:24:34.249Z,3.00
2018-08-06T18:27:03.789Z,2.60
2018-08-06T18:29:33.892Z,3.00
2018-08-06T18:32:03.219Z,2.60
2018-08-06T18:34:32.655Z,3.80
2018-08-06T18:37:02.627Z,3.00
2018-08-06T18:39:32.175Z,5.00
2018-08-06T18:42:01.583Z,3.00
2018-08-06T18:44:30.878Z,2.00
2018-08-06T18:47:00.127Z,2.80
2018-08-06T18:49:30.318Z,3.40
2018-08-06T18:51:59.836Z,3.00
2018-08-06T18:54:30.209Z,1.80
2018-08-06T18:56:59.993Z,3.80
2018-08-06T18:59:29.150Z,3.00
2018-08-06T19:01:58.533Z,5.40
2018-08-06T19:04:28.365Z,2.40
2018-08-06T19:06:57.697Z,2.40
2018-08-06T19:09:26.963Z,5.00
2018-08-06T19:12:00.424Z,4.40
2018-08-06T19:14:29.752Z,6.00
2018-08-06T19:16:58.927Z,4.20
2018-08-06T19:19:29.235Z,4.20
2018-08-06T19:21:59.876Z,5.00
2018-08-06T19:24:34.750Z,7.00
2018-08-06T19:27:04.212Z,7.00
2018-08-06T19:29:34.743Z,6.20
2018-08-06T19:32:04.370Z,6.00
2018-08-06T19:34:33.588Z,6.00
2018-08-06T19:38:10.283Z,5.00
2018-08-06T19:40:39.739Z,6.00
2018-08-06T19:43:15.534Z,9.60
2018-08-06T19:45:45.372Z,6.80
2018-08-06T19:48:15.598Z,6.00
2018-08-06T19:50:45.596Z,4.60
2018-08-06T19:53:14.860Z,5.40
2018-08-06T19:55:49.146Z,6.60
2018-08-06T19:58:18.150Z,3.80
2018-08-06T20:00:47.891Z,3.60
2018-08-06T20:03:18.318Z,6.00
2018-08-06T20:05:47.720Z,5.20
2018-08-06T20:08:17.228Z,4.60
2018-08-06T20:10:47.084Z,5.00
2018-08-06T20:13:16.548Z,4.20
2018-08-06T20:15:46.241Z,5.00
2018-08-06T20:18:15.576Z,4.80
2018-08-06T20:20:45.350Z,5.00
2018-08-06T20:23:14.696Z,5.00
2018-08-06T20:25:44.267Z,5.00
2018-08-06T20:28:13.871Z,5.00
2018-08-06T20:30:43.726Z,5.60
2018-08-06T20:33:12.963Z,5.00
2018-08-06T20:35:42.706Z,4.60
2018-08-06T20:38:11.935Z,5.00
2018-08-06T20:40:42.077Z,4.20
2018-08-06T20:43:14.217Z,3.40
2018-08-06T20:45:44.476Z,4.00
2018-08-06T20:48:13.652Z,5.00
2018-08-06T20:50:42.944Z,3.20
2018-08-06T20:53:12.496Z,3.20
2018-08-06T20:55:41.891Z,5.00
2018-08-06T20:58:11.491Z,6.40
2018-08-06T21:00:41.069Z,4.60
2018-08-06T21:03:12.425Z,5.00
2018-08-06T21:05:42.026Z,5.00
2018-08-06T21:08:12.003Z,3.80
2018-08-06T21:10:41.548Z,5.60
2018-08-06T21:13:10.959Z,5.80
2018-08-06T21:15:40.249Z,6.00
2018-08-06T21:18:09.648Z,3.20
2018-08-06T21:20:38.948Z,5.00
2018-08-06T21:23:08.251Z,4.60
2018-08-06T21:25:37.879Z,6.20
2018-08-06T21:28:08.131Z,6.00
2018-08-06T21:30:37.684Z,4.20
2018-08-06T21:33:07.603Z,6.00
2018-08-06T21:35:37.210Z,6.00
2018-08-06T21:38:07.790Z,6.80
2018-08-06T21:40:37.190Z,5.00
2018-08-06T21:43:07.484Z,7.00
2018-08-06T21:45:38.080Z,5.20
2018-08-06T21:48:07.706Z,5.40
2018-08-06T21:50:37.305Z,5.20
2018-08-06T21:53:06.838Z,7.20
2018-08-06T21:55:36.493Z,6.00
2018-08-06T21:58:07.184Z,5.60
2018-08-06T22:00:41.693Z,7.80
2018-08-06T22:03:14.498Z,6.00
2018-08-06T22:05:44.893Z,7.40
2018-08-06T22:08:15.268Z,6.00
2018-08-06T22:10:45.063Z,9.00
2018-08-06T22:13:14.454Z,7.20
2018-08-06T22:15:45.040Z,6.00
2018-08-06T22:18:14.483Z,6.00
2018-08-06T22:20:44.334Z,6.40
2018-08-06T22:23:13.586Z,7.80
2018-08-06T22:25:43.427Z,6.20
2018-08-06T22:28:13.270Z,6.60
2018-08-06T22:30:42.672Z,5.20
2018-08-06T22:33:11.851Z,6.00
2018-08-06T22:35:41.255Z,3.40
2018-08-06T22:38:10.530Z,5.00
2018-08-06T22:40:41.187Z,4.00
2018-08-06T22:43:11.119Z,7.40
2018-08-06T22:45:40.545Z,9.40
2018-08-06T22:48:10.406Z,8.80
2018-08-06T22:50:40.342Z,6.40
2018-08-06T22:53:10.255Z,8.40
2018-08-06T22:55:51.513Z,5.80
2018-08-06T22:58:20.942Z,7.80
2018-08-06T23:00:50.375Z,6.00
2018-08-06T23:03:20.363Z,5.80
2018-08-06T23:05:51.142Z,5.40
2018-08-06T23:08:21.154Z,4.00
2018-08-06T23:10:50.730Z,4.40
2018-08-06T23:13:20.013Z,5.00
2018-08-06T23:15:50.849Z,5.40
2018-08-06T23:18:20.878Z,5.00
2018-08-06T23:20:51.317Z,3.20
2018-08-06T23:23:21.624Z,5.40
2018-08-06T23:25:51.752Z,4.00
2018-08-06T23:28:21.247Z,5.40
2018-08-06T23:30:50.546Z,4.00
2018-08-06T23:33:19.738Z,5.20
2018-08-06T23:35:49.453Z,7.00
2018-08-06T23:38:18.758Z,4.00
2018-08-06T23:40:48.312Z,4.80
2018-08-06T23:43:17.575Z,5.00
2018-08-06T23:45:46.790Z,10.20
2018-08-06T23:48:16.272Z,3.00
2018-08-06T23:50:46.563Z,5.00
2018-08-06T23:53:15.919Z,4.40
2018-08-06T23:55:45.870Z,2.80
2018-08-06T23:58:15.329Z,4.00
